createdAt,value
2017-10-21T00:00:16.932Z,0.00
2017-10-21T00:01:17.061Z,0.00
2017-10-21T00:02:17.028Z,0.00
2017-10-21T00:03:17.077Z,0.00
2017-10-21T00:04:17.122Z,0.00
2017-10-21T00:05:17.170Z,0.00
2017-10-21T00:06:17.286Z,0.00
2017-10-21T00:07:17.336Z,0.00
2017-10-21T00:08:17.363Z,0.00
2017-10-21T00:09:17.368Z,0.00
2017-10-21T00:10:17.418Z,0.00
2017-10-21T00:11:17.470Z,0.00
2017-10-21T00:12:17.579Z,0.00
2017-10-21T00:13:17.562Z,0.00
2017-10-21T00:14:17.613Z,0.00
2017-10-21T00:15:17.661Z,0.00
2017-10-21T00:16:17.705Z,0.00
2017-10-21T00:17:17.824Z,0.00
2017-10-21T00:18:17.816Z,0.00
2017-10-21T00:19:17.857Z,0.00
2017-10-21T00:20:17.905Z,0.00
2017-10-21T00:21:17.954Z,0.00
2017-10-21T00:22:18.085Z,0.00
2017-10-21T00:23:18.050Z,0.00
2017-10-21T00:24:18.097Z,0.00
2017-10-21T00:25:18.150Z,0.00
2017-10-21T00:26:18.198Z,0.00
2017-10-21T00:27:18.317Z,0.00
2017-10-21T00:28:18.296Z,0.00
2017-10-21T00:29:18.344Z,0.00
2017-10-21T00:30:18.394Z,0.00
2017-10-21T00:31:18.445Z,0.00
2017-10-21T00:32:18.570Z,0.00
2017-10-21T00:33:18.539Z,0.00
2017-10-21T00:34:18.589Z,0.00
2017-10-21T00:35:18.641Z,0.00
2017-10-21T00:36:18.687Z,0.00
2017-10-21T00:37:18.813Z,0.00
2017-10-21T00:38:18.783Z,0.00
2017-10-21T00:39:18.832Z,0.00
2017-10-21T00:40:18.880Z,0.00
2017-10-21T00:41:18.928Z,0.00
2017-10-21T00:42:19.041Z,0.00
2017-10-21T00:43:19.093Z,0.00
2017-10-21T00:44:19.073Z,0.00
2017-10-21T00:45:19.123Z,0.00
2017-10-21T00:46:19.172Z,0.00
2017-10-21T00:47:19.221Z,0.00
2017-10-21T00:48:19.334Z,0.00
2017-10-21T00:49:19.317Z,0.00
2017-10-21T00:50:19.367Z,0.00
2017-10-21T00:51:19.416Z,0.00
2017-10-21T00:52:19.463Z,0.00
2017-10-21T00:53:19.591Z,0.00
2017-10-21T00:54:19.562Z,0.00
2017-10-21T00:55:19.608Z,0.00
2017-10-21T00:56:19.660Z,0.00
2017-10-21T00:57:19.710Z,0.00
2017-10-21T00:58:19.844Z,0.00
2017-10-21T00:59:19.813Z,0.00
2017-10-21T01:00:19.853Z,0.00
2017-10-21T01:01:19.905Z,0.00
2017-10-21T01:02:19.953Z,0.00
2017-10-21T01:03:20.082Z,0.00
2017-10-21T01:04:20.047Z,0.00
2017-10-21T01:05:20.099Z,0.00
2017-10-21T01:06:20.148Z,0.00
2017-10-21T01:07:20.195Z,0.00
2017-10-21T01:08:20.312Z,0.00
2017-10-21T01:09:20.360Z,0.00
2017-10-21T01:10:20.343Z,0.00
2017-10-21T01:11:20.392Z,0.00
2017-10-21T01:12:20.436Z,0.00
2017-10-21T01:13:20.485Z,0.00
2017-10-21T01:14:20.604Z,0.00
2017-10-21T01:15:20.587Z,0.00
2017-10-21T01:16:20.644Z,0.00
2017-10-21T01:17:20.683Z,0.00
2017-10-21T01:18:20.732Z,0.00
2017-10-21T01:19:20.846Z,0.00
2017-10-21T01:20:20.826Z,0.00
2017-10-21T01:21:20.878Z,0.00
2017-10-21T01:22:20.924Z,0.00
2017-10-21T01:23:20.973Z,0.00
2017-10-21T01:24:21.089Z,0.00
2017-10-21T01:25:21.072Z,0.00
2017-10-21T01:26:21.121Z,0.00
2017-10-21T01:27:21.168Z,0.00
2017-10-21T01:28:21.221Z,0.00
2017-10-21T01:29:21.333Z,0.00
2017-10-21T01:30:21.322Z,0.00
2017-10-21T01:31:21.365Z,0.00
2017-10-21T01:32:21.415Z,0.00
2017-10-21T01:33:21.470Z,0.00
2017-10-21T01:34:21.577Z,0.00
2017-10-21T01:35:21.560Z,0.00
2017-10-21T01:36:21.612Z,0.00
2017-10-21T01:37:21.662Z,0.00
2017-10-21T01:38:21.706Z,0.00
2017-10-21T01:39:21.826Z,0.00
2017-10-21T01:40:21.805Z,0.00
2017-10-21T01:41:21.852Z,0.00
2017-10-21T01:42:21.903Z,0.00
2017-10-21T01:43:21.952Z,0.00
2017-10-21T01:44:22.065Z,0.00
2017-10-21T01:45:22.046Z,0.00
2017-10-21T01:46:22.098Z,0.00
2017-10-21T01:47:22.147Z,0.00
2017-10-21T01:48:22.194Z,0.00
2017-10-21T01:49:22.326Z,0.00
2017-10-21T01:50:22.295Z,0.00
2017-10-21T01:51:22.341Z,0.00
2017-10-21T01:52:22.394Z,0.00
2017-10-21T01:53:22.443Z,0.00
2017-10-21T01:54:22.567Z,0.00
2017-10-21T01:55:22.536Z,0.00
2017-10-21T01:56:22.586Z,0.00
2017-10-21T01:57:22.635Z,0.00
2017-10-21T01:58:22.684Z,0.00
2017-10-21T01:59:22.804Z,0.00
2017-10-21T02:00:22.853Z,0.00
2017-10-21T02:01:22.833Z,0.00
2017-10-21T02:02:22.882Z,0.00
2017-10-21T02:03:22.928Z,0.00
2017-10-21T02:04:22.977Z,0.00
2017-10-21T02:05:23.091Z,0.00
2017-10-21T02:06:23.073Z,0.00
2017-10-21T02:07:23.123Z,0.00
2017-10-21T02:08:23.172Z,0.00
2017-10-21T02:09:23.240Z,0.00
2017-10-21T02:10:23.331Z,0.00
2017-10-21T02:11:23.318Z,0.00
2017-10-21T02:12:23.367Z,0.00
2017-10-21T02:13:23.414Z,0.00
2017-10-21T02:14:23.469Z,0.00
2017-10-21T02:15:23.601Z,0.00
2017-10-21T02:16:23.562Z,0.00
2017-10-21T02:17:24.560Z,0.00
2017-10-21T02:18:23.661Z,0.00
2017-10-21T02:19:23.707Z,0.00
2017-10-21T02:20:23.825Z,0.00
2017-10-21T02:21:23.805Z,0.00
2017-10-21T02:22:23.855Z,0.00
2017-10-21T02:23:23.904Z,0.00
2017-10-21T02:24:23.949Z,0.00
2017-10-21T02:25:24.086Z,0.00
2017-10-21T02:26:24.072Z,0.00
2017-10-21T02:27:24.099Z,0.00
2017-10-21T02:28:24.146Z,0.00
2017-10-21T02:29:24.198Z,0.00
2017-10-21T02:30:24.310Z,0.00
2017-10-21T02:31:24.354Z,0.00
2017-10-21T02:32:24.346Z,0.00
2017-10-21T02:33:24.389Z,0.00
2017-10-21T02:34:24.437Z,0.00
2017-10-21T02:35:24.489Z,0.00
2017-10-21T02:36:24.598Z,0.00
2017-10-21T02:37:24.587Z,0.00
2017-10-21T02:38:24.652Z,0.00
2017-10-21T02:39:24.686Z,0.00
2017-10-21T02:40:24.732Z,0.00
2017-10-21T02:41:24.848Z,0.00
2017-10-21T02:42:24.840Z,0.00
2017-10-21T02:43:24.878Z,0.00
2017-10-21T02:44:24.927Z,0.00
2017-10-21T02:45:24.977Z,0.00
2017-10-21T02:46:25.108Z,0.00
2017-10-21T02:47:25.072Z,0.00
2017-10-21T02:48:25.119Z,0.00
2017-10-21T02:49:25.174Z,0.00
2017-10-21T02:50:25.218Z,0.00
2017-10-21T02:51:25.340Z,0.00
2017-10-21T02:52:25.380Z,0.00
2017-10-21T02:53:25.366Z,0.00
2017-10-21T02:54:25.417Z,0.00
2017-10-21T02:55:25.464Z,0.00
2017-10-21T02:56:25.517Z,0.00
2017-10-21T02:57:25.624Z,0.00
2017-10-21T02:58:25.610Z,0.00
2017-10-21T02:59:25.659Z,0.00
2017-10-21T03:00:25.706Z,0.00
2017-10-21T03:01:25.755Z,0.00
2017-10-21T03:02:25.868Z,0.00
2017-10-21T03:03:25.853Z,0.00
2017-10-21T03:04:25.905Z,0.00
2017-10-21T03:05:25.947Z,0.00
2017-10-21T03:06:25.999Z,0.00
2017-10-21T03:07:26.112Z,0.00
2017-10-21T03:08:26.101Z,0.00
2017-10-21T03:09:26.142Z,0.00
2017-10-21T03:10:26.191Z,0.00
2017-10-21T03:11:26.243Z,0.00
2017-10-21T03:12:26.350Z,0.00
2017-10-21T03:13:26.339Z,0.00
2017-10-21T03:14:26.389Z,0.00
2017-10-21T03:15:26.439Z,0.00
2017-10-21T03:16:26.484Z,0.00
2017-10-21T03:17:26.598Z,0.00
2017-10-21T03:18:26.584Z,0.00
2017-10-21T03:19:26.632Z,0.00
2017-10-21T03:20:26.676Z,0.00
2017-10-21T03:21:26.725Z,0.00
2017-10-21T03:22:26.842Z,0.00
2017-10-21T03:23:26.833Z,0.00
2017-10-21T03:24:26.876Z,0.00
2017-10-21T03:25:26.924Z,0.00
2017-10-21T03:26:26.970Z,0.00
2017-10-21T03:27:27.087Z,0.00
2017-10-21T03:28:27.068Z,0.00
2017-10-21T03:29:27.117Z,0.00
2017-10-21T03:30:27.165Z,0.00
2017-10-21T03:31:27.213Z,0.00
2017-10-21T03:32:27.327Z,0.00
2017-10-21T03:33:28.070Z,0.00
2017-10-21T03:34:27.357Z,0.00
2017-10-21T03:35:27.408Z,0.00
2017-10-21T03:36:27.454Z,0.00
2017-10-21T03:37:27.568Z,0.00
2017-10-21T03:38:27.554Z,0.00
2017-10-21T03:39:27.602Z,0.00
2017-10-21T03:40:27.655Z,0.00
2017-10-21T03:41:27.698Z,0.00
2017-10-21T03:42:27.811Z,0.00
2017-10-21T03:43:27.798Z,0.00
2017-10-21T03:44:27.844Z,0.00
2017-10-21T03:45:27.900Z,0.00
2017-10-21T03:46:27.940Z,0.00
2017-10-21T03:47:28.069Z,0.00
2017-10-21T03:48:28.036Z,0.00
2017-10-21T03:49:28.089Z,0.00
2017-10-21T03:50:28.132Z,0.00
2017-10-21T03:51:28.184Z,0.00
2017-10-21T03:52:28.295Z,0.00
2017-10-21T03:53:28.347Z,0.00
2017-10-21T03:54:28.329Z,0.00
2017-10-21T03:55:28.379Z,0.00
2017-10-21T03:56:28.428Z,0.00
2017-10-21T03:57:28.482Z,0.00
2017-10-21T03:58:28.610Z,0.00
2017-10-21T03:59:28.578Z,0.00
2017-10-21T04:00:29.574Z,0.00
2017-10-21T04:01:28.675Z,0.00
2017-10-21T04:02:28.719Z,0.00
2017-10-21T04:03:28.832Z,0.00
2017-10-21T04:04:28.815Z,0.00
2017-10-21T04:05:28.864Z,0.00
2017-10-21T04:06:28.914Z,0.00
2017-10-21T04:07:28.963Z,0.00
2017-10-21T04:08:29.089Z,0.00
2017-10-21T04:09:29.059Z,0.00
2017-10-21T04:10:29.108Z,0.00
2017-10-21T04:11:29.157Z,0.00
2017-10-21T04:12:29.204Z,0.00
2017-10-21T04:13:29.331Z,0.00
2017-10-21T04:14:29.308Z,0.00
2017-10-21T04:15:29.349Z,0.00
2017-10-21T04:16:29.398Z,0.00
2017-10-21T04:17:29.448Z,0.00
2017-10-21T04:18:29.579Z,0.00
2017-10-21T04:19:29.542Z,0.00
2017-10-21T04:20:29.596Z,0.00
2017-10-21T04:21:29.642Z,0.00
2017-10-21T04:22:29.690Z,0.00
2017-10-21T04:23:29.818Z,0.00
2017-10-21T04:24:29.788Z,0.00
2017-10-21T04:25:29.838Z,0.00
2017-10-21T04:26:29.889Z,0.00
2017-10-21T04:27:29.933Z,0.00
2017-10-21T04:28:30.065Z,0.00
2017-10-21T04:29:30.578Z,0.00
2017-10-21T04:30:30.082Z,0.00
2017-10-21T04:31:30.128Z,0.00
2017-10-21T04:32:30.180Z,0.00
2017-10-21T04:33:30.290Z,0.00
2017-10-21T04:34:30.343Z,0.00
2017-10-21T04:35:30.325Z,0.00
2017-10-21T04:36:31.080Z,0.00
2017-10-21T04:37:30.418Z,0.00
2017-10-21T04:38:30.472Z,0.00
2017-10-21T04:39:30.581Z,0.00
2017-10-21T04:40:30.566Z,0.00
2017-10-21T04:41:30.616Z,0.00
2017-10-21T04:42:30.664Z,0.00
2017-10-21T04:43:30.712Z,0.00
2017-10-21T04:44:30.825Z,0.00
2017-10-21T04:45:30.806Z,0.00
2017-10-21T04:46:30.858Z,0.00
2017-10-21T04:47:30.912Z,0.00
2017-10-21T04:48:30.953Z,0.00
2017-10-21T04:49:31.066Z,0.00
2017-10-21T04:50:31.054Z,0.00
2017-10-21T04:51:31.101Z,0.00
2017-10-21T04:52:31.148Z,0.00
2017-10-21T04:53:31.197Z,0.00
2017-10-21T04:54:31.321Z,0.00
2017-10-21T04:55:31.295Z,0.00
2017-10-21T04:56:31.340Z,0.00
2017-10-21T04:57:31.399Z,0.00
2017-10-21T04:58:31.443Z,0.00
2017-10-21T04:59:31.573Z,0.00
2017-10-21T05:00:31.540Z,0.00
2017-10-21T05:01:31.593Z,0.00
2017-10-21T05:02:31.635Z,0.00
2017-10-21T05:03:31.683Z,0.00
2017-10-21T05:04:31.795Z,0.00
2017-10-21T05:05:31.845Z,0.00
2017-10-21T05:06:31.830Z,0.00
2017-10-21T05:07:31.884Z,0.00
2017-10-21T05:08:31.931Z,0.00
2017-10-21T05:09:31.976Z,0.00
2017-10-21T05:10:32.087Z,0.00
2017-10-21T05:11:32.072Z,0.00
2017-10-21T05:12:32.121Z,0.00
2017-10-21T05:13:32.168Z,0.00
2017-10-21T05:14:32.229Z,0.00
2017-10-21T05:15:32.335Z,0.00
2017-10-21T05:16:32.316Z,0.00
2017-10-21T05:17:32.360Z,0.00
2017-10-21T05:18:32.415Z,0.00
2017-10-21T05:19:32.461Z,0.00
2017-10-21T05:20:32.580Z,0.00
2017-10-21T05:21:32.554Z,0.00
2017-10-21T05:22:32.612Z,0.00
2017-10-21T05:23:32.656Z,0.00
2017-10-21T05:24:32.705Z,0.00
2017-10-21T05:25:32.816Z,0.00
2017-10-21T05:26:32.801Z,4.00
2017-10-21T05:27:32.850Z,4.00
2017-10-21T05:28:32.894Z,0.00
2017-10-21T05:29:32.946Z,4.00
2017-10-21T05:30:33.057Z,4.00
2017-10-21T05:31:33.109Z,8.00
2017-10-21T05:32:33.092Z,16.00
2017-10-21T05:33:33.144Z,20.00
2017-10-21T05:34:33.194Z,24.00
2017-10-21T05:35:33.238Z,32.00
2017-10-21T05:36:33.350Z,36.00
2017-10-21T05:37:33.335Z,44.00
2017-10-21T05:38:33.386Z,52.00
2017-10-21T05:39:33.429Z,64.00
2017-10-21T05:40:33.481Z,76.00
2017-10-21T05:41:33.595Z,92.00
2017-10-21T05:42:33.577Z,108.00
2017-10-21T05:43:33.626Z,128.00
2017-10-21T05:44:33.676Z,148.00
2017-10-21T05:45:33.723Z,164.00
2017-10-21T05:46:33.836Z,180.00
2017-10-21T05:47:33.821Z,196.00
2017-10-21T05:48:33.868Z,212.00
2017-10-21T05:49:33.917Z,228.00
2017-10-21T05:50:33.964Z,248.00
2017-10-21T05:51:34.077Z,268.00
2017-10-21T05:52:34.134Z,288.00
2017-10-21T05:53:34.112Z,308.00
2017-10-21T05:54:34.161Z,332.00
2017-10-21T05:55:34.210Z,360.00
2017-10-21T05:56:34.258Z,416.00
2017-10-21T05:57:34.370Z,480.00
2017-10-21T05:58:34.353Z,528.00
2017-10-21T05:59:34.402Z,580.00
2017-10-21T06:00:34.452Z,640.00
2017-10-21T06:01:34.507Z,704.00
2017-10-21T06:02:34.616Z,760.00
2017-10-21T06:03:34.599Z,824.00
2017-10-21T06:04:34.646Z,896.00
2017-10-21T06:05:34.704Z,984.00
2017-10-21T06:06:34.747Z,1100.00
2017-10-21T06:07:34.860Z,1220.00
2017-10-21T06:08:34.841Z,1336.00
2017-10-21T06:09:34.895Z,1436.00
2017-10-21T06:10:34.939Z,1520.00
2017-10-21T06:11:34.989Z,1592.00
2017-10-21T06:12:35.102Z,1680.00
2017-10-21T06:13:35.086Z,1768.00
2017-10-21T06:14:35.135Z,1820.00
2017-10-21T06:15:35.184Z,1936.00
2017-10-21T06:16:35.233Z,2100.00
2017-10-21T06:17:35.360Z,676.00
2017-10-21T06:18:35.330Z,2320.00
2017-10-21T06:19:35.380Z,2576.00
2017-10-21T06:20:35.425Z,2864.00
2017-10-21T06:21:35.477Z,3032.00
2017-10-21T06:22:35.629Z,3180.00
2017-10-21T06:23:35.573Z,3320.00
2017-10-21T06:24:35.620Z,3312.00
2017-10-21T06:25:35.669Z,3296.00
2017-10-21T06:26:35.723Z,3348.00
2017-10-21T06:27:35.853Z,3620.00
2017-10-21T06:28:35.813Z,3692.00
2017-10-21T06:29:35.866Z,3472.00
2017-10-21T06:30:35.914Z,3488.00
2017-10-21T06:31:35.960Z,3700.00
2017-10-21T06:32:36.150Z,3784.00
2017-10-21T06:33:36.061Z,3732.00
2017-10-21T06:34:36.114Z,3736.00
2017-10-21T06:35:36.158Z,3860.00
2017-10-21T06:36:36.204Z,3980.00
2017-10-21T06:37:36.317Z,4156.00
2017-10-21T06:38:36.387Z,4292.00
2017-10-21T06:39:36.352Z,3844.00
2017-10-21T06:40:36.401Z,3440.00
2017-10-21T06:41:36.447Z,3464.00
2017-10-21T06:42:36.496Z,3580.00
2017-10-21T06:43:36.612Z,3792.00
2017-10-21T06:44:36.596Z,4124.00
2017-10-21T06:45:36.652Z,4320.00
2017-10-21T06:46:36.694Z,4596.00
2017-10-21T06:47:36.743Z,5252.00
2017-10-21T06:48:36.854Z,5492.00
2017-10-21T06:49:36.903Z,5152.00
2017-10-21T06:50:36.889Z,4828.00
2017-10-21T06:51:36.938Z,4508.00
2017-10-21T06:52:36.984Z,4152.00
2017-10-21T06:53:37.035Z,3700.00
2017-10-21T06:54:37.147Z,3368.00
2017-10-21T06:55:37.137Z,3292.00
2017-10-21T06:56:37.192Z,3200.00
2017-10-21T06:57:37.232Z,3108.00
2017-10-21T06:58:37.750Z,3300.00
2017-10-21T06:59:37.394Z,3312.00
2017-10-21T07:00:37.380Z,3328.00
2017-10-21T07:01:37.426Z,3708.00
2017-10-21T07:02:37.476Z,4304.00
2017-10-21T07:03:37.522Z,4808.00
2017-10-21T07:04:37.637Z,5160.00
2017-10-21T07:05:37.620Z,5844.00
2017-10-21T07:06:37.670Z,7048.00
2017-10-21T07:07:37.720Z,7952.00
2017-10-21T07:08:37.769Z,9060.00
2017-10-21T07:09:37.879Z,9544.00
2017-10-21T07:10:37.865Z,8712.00
2017-10-21T07:11:37.917Z,8728.00
2017-10-21T07:12:37.977Z,8152.00
2017-10-21T07:13:38.013Z,7460.00
2017-10-21T07:14:38.144Z,7104.00
2017-10-21T07:15:38.112Z,6412.00
2017-10-21T07:16:38.164Z,6160.00
2017-10-21T07:17:38.210Z,6160.00
2017-10-21T07:18:38.262Z,5860.00
2017-10-21T07:19:38.391Z,5608.00
2017-10-21T07:20:38.356Z,5484.00
2017-10-21T07:21:38.407Z,5936.00
2017-10-21T07:22:38.457Z,6840.00
2017-10-21T07:23:38.503Z,7876.00
2017-10-21T07:24:38.635Z,8364.00
2017-10-21T07:25:38.600Z,8188.00
2017-10-21T07:26:38.651Z,8556.00
2017-10-21T07:27:38.702Z,9404.00
2017-10-21T07:28:38.750Z,9336.00
2017-10-21T07:29:38.871Z,9576.00
2017-10-21T07:30:38.912Z,10176.00
2017-10-21T07:31:38.898Z,10440.00
2017-10-21T07:32:38.944Z,10248.00
2017-10-21T07:33:39.007Z,9864.00
2017-10-21T07:34:39.046Z,10072.00
2017-10-21T07:35:39.175Z,9832.00
2017-10-21T07:36:39.147Z,9636.00
2017-10-21T07:37:39.194Z,9700.00
2017-10-21T07:38:39.243Z,9840.00
2017-10-21T07:39:39.295Z,10304.00
2017-10-21T07:40:39.403Z,10564.00
2017-10-21T07:41:39.391Z,11144.00
2017-10-21T07:42:39.445Z,11252.00
2017-10-21T07:43:39.490Z,13476.00
2017-10-21T07:44:39.539Z,11380.00
2017-10-21T07:45:39.671Z,15428.00
2017-10-21T07:46:39.638Z,15244.00
2017-10-21T07:47:39.688Z,14328.00
2017-10-21T07:48:39.733Z,13800.00
2017-10-21T07:49:39.780Z,14104.00
2017-10-21T07:50:39.921Z,14284.00
2017-10-21T07:51:39.885Z,14352.00
2017-10-21T07:52:39.934Z,14268.00
2017-10-21T07:53:39.978Z,15496.00
2017-10-21T07:54:40.032Z,14916.00
2017-10-21T07:55:40.161Z,16040.00
2017-10-21T07:56:40.134Z,15988.00
2017-10-21T07:57:40.178Z,16636.00
2017-10-21T07:58:40.232Z,17376.00
2017-10-21T07:59:40.279Z,17792.00
2017-10-21T08:00:40.418Z,17824.00
2017-10-21T08:01:40.384Z,16832.00
2017-10-21T08:02:40.432Z,16452.00
2017-10-21T08:03:40.476Z,16688.00
2017-10-21T08:04:40.526Z,16700.00
2017-10-21T08:05:40.824Z,16760.00
2017-10-21T08:06:40.624Z,16516.00
2017-10-21T08:07:40.674Z,16952.00
2017-10-21T08:08:40.728Z,17568.00
2017-10-21T08:09:40.772Z,18624.00
2017-10-21T08:10:40.824Z,20640.00
2017-10-21T08:11:40.953Z,23040.00
2017-10-21T08:12:40.923Z,17132.00
2017-10-21T08:13:40.973Z,17376.00
2017-10-21T08:14:41.022Z,17792.00
2017-10-21T08:15:41.071Z,19488.00
2017-10-21T08:16:41.187Z,20128.00
2017-10-21T08:17:41.169Z,19456.00
2017-10-21T08:18:41.222Z,20864.00
2017-10-21T08:19:41.271Z,20256.00
2017-10-21T08:20:41.325Z,22144.00
2017-10-21T08:21:41.452Z,24992.00
2017-10-21T08:22:41.419Z,26304.00
2017-10-21T08:23:41.467Z,27744.00
2017-10-21T08:24:41.523Z,25280.00
2017-10-21T08:25:41.570Z,20128.00
2017-10-21T08:26:41.698Z,19328.00
2017-10-21T08:27:41.737Z,19168.00
2017-10-21T08:28:41.720Z,18752.00
2017-10-21T08:29:41.793Z,18720.00
2017-10-21T08:30:41.821Z,18752.00
2017-10-21T08:31:41.953Z,18304.00
2017-10-21T08:32:41.923Z,18624.00
2017-10-21T08:33:41.978Z,18880.00
2017-10-21T08:34:42.021Z,19104.00
2017-10-21T08:35:42.078Z,18720.00
2017-10-21T08:36:42.194Z,16604.00
2017-10-21T08:37:42.182Z,14992.00
2017-10-21T08:38:42.225Z,13936.00
2017-10-21T08:39:42.273Z,13752.00
2017-10-21T08:40:42.323Z,13440.00
2017-10-21T08:41:42.454Z,13068.00
2017-10-21T08:42:42.421Z,12728.00
2017-10-21T08:43:42.473Z,13048.00
2017-10-21T08:44:42.526Z,13356.00
2017-10-21T08:45:42.572Z,13104.00
2017-10-21T08:46:42.706Z,11176.00
2017-10-21T08:47:42.674Z,10024.00
2017-10-21T08:48:42.726Z,9000.00
2017-10-21T08:49:42.775Z,8736.00
2017-10-21T08:50:42.824Z,8844.00
2017-10-21T08:51:42.955Z,8880.00
2017-10-21T08:52:42.921Z,8744.00
2017-10-21T08:53:42.972Z,8704.00
2017-10-21T08:54:43.023Z,8392.00
2017-10-21T08:55:43.073Z,8552.00
2017-10-21T08:56:43.186Z,8536.00
2017-10-21T08:57:43.236Z,8460.00
2017-10-21T08:58:43.218Z,8896.00
2017-10-21T08:59:43.267Z,9596.00
2017-10-21T09:00:43.323Z,10200.00
2017-10-21T09:01:43.366Z,10680.00
2017-10-21T09:02:43.485Z,10500.00
2017-10-21T09:03:43.473Z,9664.00
2017-10-21T09:04:43.520Z,9496.00
2017-10-21T09:05:43.569Z,10044.00
2017-10-21T09:06:43.622Z,10692.00
2017-10-21T09:07:43.734Z,11708.00
2017-10-21T09:08:43.717Z,12364.00
2017-10-21T09:09:43.766Z,12444.00
2017-10-21T09:10:43.823Z,13668.00
2017-10-21T09:11:43.868Z,14344.00
2017-10-21T09:12:43.980Z,14656.00
2017-10-21T09:13:43.966Z,13888.00
2017-10-21T09:14:44.015Z,13652.00
2017-10-21T09:15:44.065Z,21344.00
2017-10-21T09:16:44.114Z,27424.00
2017-10-21T09:17:44.242Z,22496.00
2017-10-21T09:18:44.229Z,26016.00
2017-10-21T09:19:44.265Z,19200.00
2017-10-21T09:20:44.311Z,18656.00
2017-10-21T09:21:44.364Z,19168.00
2017-10-21T09:22:44.495Z,18560.00
2017-10-21T09:23:44.465Z,20640.00
2017-10-21T09:24:44.514Z,24800.00
2017-10-21T09:25:45.133Z,43072.00
2017-10-21T09:26:44.612Z,23392.00
2017-10-21T09:27:44.726Z,38144.00
2017-10-21T09:28:44.772Z,21600.00
2017-10-21T09:29:44.766Z,18400.00
2017-10-21T09:30:44.813Z,22304.00
2017-10-21T09:31:44.862Z,20256.00
2017-10-21T09:32:44.909Z,27872.00
2017-10-21T09:33:45.024Z,31232.00
2017-10-21T09:34:45.016Z,58656.00
2017-10-21T09:35:45.068Z,76512.00
2017-10-21T09:36:45.122Z,36704.00
2017-10-21T09:37:45.163Z,35328.00
2017-10-21T09:38:45.279Z,42496.00
2017-10-21T09:39:45.266Z,34432.00
2017-10-21T09:40:45.317Z,60544.00
2017-10-21T09:41:45.369Z,37632.00
2017-10-21T09:42:45.418Z,40800.00
2017-10-21T09:43:45.550Z,48448.00
2017-10-21T09:44:45.525Z,68704.00
2017-10-21T09:45:45.574Z,69408.00
2017-10-21T09:46:45.629Z,63168.00
2017-10-21T09:47:45.675Z,73920.00
2017-10-21T09:48:45.791Z,70592.00
2017-10-21T09:49:45.848Z,78368.00
2017-10-21T09:50:45.834Z,84960.00
2017-10-21T09:51:45.885Z,94656.00
2017-10-21T09:52:45.939Z,92480.00
2017-10-21T09:53:45.990Z,61824.00
2017-10-21T09:54:46.105Z,78688.00
2017-10-21T09:55:46.098Z,74592.00
2017-10-21T09:56:46.151Z,83584.00
2017-10-21T09:57:46.211Z,94464.00
2017-10-21T09:58:46.257Z,86976.00
2017-10-21T09:59:46.378Z,86496.00
2017-10-21T10:00:46.367Z,55520.00
2017-10-21T10:01:46.421Z,74016.00
2017-10-21T10:02:46.475Z,67296.00
2017-10-21T10:03:46.534Z,53472.00
2017-10-21T10:04:46.649Z,73632.00
2017-10-21T10:05:46.642Z,81568.00
2017-10-21T10:06:46.695Z,73344.00
2017-10-21T10:07:46.750Z,84032.00
2017-10-21T10:08:46.803Z,78144.00
2017-10-21T10:09:46.940Z,89248.00
2017-10-21T10:10:46.913Z,91104.00
2017-10-21T10:11:46.968Z,85856.00
2017-10-21T10:12:47.022Z,93408.00
2017-10-21T10:13:47.082Z,95936.00
2017-10-21T10:14:47.218Z,93728.00
2017-10-21T10:15:47.189Z,83072.00
2017-10-21T10:16:47.244Z,73728.00
2017-10-21T10:17:47.300Z,75456.00
2017-10-21T10:18:47.358Z,72160.00
2017-10-21T10:19:47.497Z,82560.00
2017-10-21T10:20:47.467Z,29664.00
2017-10-21T10:21:47.524Z,63072.00
2017-10-21T10:22:47.585Z,40032.00
2017-10-21T10:23:47.636Z,39584.00
2017-10-21T10:24:47.765Z,63264.00
2017-10-21T10:25:47.748Z,50912.00
2017-10-21T10:26:47.803Z,61888.00
2017-10-21T10:27:47.860Z,64320.00
2017-10-21T10:28:47.915Z,59968.00
2017-10-21T10:29:48.047Z,56512.00
2017-10-21T10:30:48.027Z,61248.00
2017-10-21T10:31:48.085Z,52640.00
2017-10-21T10:32:48.139Z,72288.00
2017-10-21T10:33:48.190Z,63552.00
2017-10-21T10:34:48.333Z,70592.00
2017-10-21T10:35:48.305Z,63808.00
2017-10-21T10:36:48.360Z,52384.00
2017-10-21T10:37:48.418Z,50112.00
2017-10-21T10:38:48.471Z,50144.00
2017-10-21T10:39:48.612Z,39616.00
2017-10-21T10:40:48.584Z,38176.00
2017-10-21T10:41:48.638Z,35680.00
2017-10-21T10:42:48.696Z,31968.00
2017-10-21T10:43:48.748Z,33248.00
2017-10-21T10:44:48.866Z,31488.00
2017-10-21T10:45:48.926Z,30464.00
2017-10-21T10:46:48.919Z,29664.00
2017-10-21T10:47:48.971Z,27744.00
2017-10-21T10:48:49.027Z,26656.00
2017-10-21T10:49:49.081Z,26720.00
2017-10-21T10:50:49.203Z,26048.00
2017-10-21T10:51:49.193Z,25536.00
2017-10-21T10:52:49.244Z,26208.00
2017-10-21T10:53:49.302Z,28000.00
2017-10-21T10:54:49.354Z,27008.00
2017-10-21T10:55:49.472Z,32288.00
2017-10-21T10:56:49.466Z,29792.00
2017-10-21T10:57:49.514Z,32608.00
2017-10-21T10:58:49.575Z,33024.00
2017-10-21T10:59:49.627Z,33952.00
2017-10-21T11:00:49.745Z,34400.00
2017-10-21T11:01:49.734Z,33152.00
2017-10-21T11:02:49.788Z,32672.00
2017-10-21T11:03:49.842Z,30592.00
2017-10-21T11:04:49.900Z,29632.00
2017-10-21T11:05:50.013Z,28512.00
2017-10-21T11:06:50.004Z,25920.00
2017-10-21T11:07:50.056Z,26464.00
2017-10-21T11:08:50.111Z,27232.00
2017-10-21T11:09:50.162Z,28896.00
2017-10-21T11:10:50.275Z,30400.00
2017-10-21T11:11:50.271Z,30400.00
2017-10-21T11:12:50.323Z,35808.00
2017-10-21T11:13:50.376Z,37152.00
2017-10-21T11:14:50.436Z,38912.00
2017-10-21T11:15:50.567Z,38720.00
2017-10-21T11:16:50.544Z,30976.00
2017-10-21T11:17:50.591Z,32608.00
2017-10-21T11:18:50.644Z,33184.00
2017-10-21T11:19:50.698Z,34016.00
2017-10-21T11:20:50.837Z,37088.00
2017-10-21T11:21:50.807Z,39552.00
2017-10-21T11:22:50.859Z,36992.00
2017-10-21T11:23:50.912Z,32512.00
2017-10-21T11:24:50.963Z,34816.00
2017-10-21T11:25:51.121Z,30848.00
2017-10-21T11:26:51.076Z,30144.00
2017-10-21T11:27:51.124Z,27168.00
2017-10-21T11:28:51.179Z,26784.00
2017-10-21T11:29:51.233Z,27328.00
2017-10-21T11:30:51.367Z,27104.00
2017-10-21T11:31:51.337Z,26528.00
2017-10-21T11:32:51.391Z,26208.00
2017-10-21T11:33:51.449Z,26592.00
2017-10-21T11:34:51.499Z,28032.00
2017-10-21T11:35:51.632Z,32832.00
2017-10-21T11:36:51.606Z,36064.00
2017-10-21T11:37:51.657Z,38432.00
2017-10-21T11:38:51.720Z,37216.00
2017-10-21T11:39:51.767Z,35296.00
2017-10-21T11:40:51.894Z,31456.00
2017-10-21T11:41:51.875Z,28480.00
2017-10-21T11:42:51.927Z,29440.00
2017-10-21T11:43:51.977Z,27456.00
2017-10-21T11:44:52.035Z,27840.00
2017-10-21T11:45:52.165Z,26656.00
2017-10-21T11:46:52.136Z,27200.00
2017-10-21T11:47:52.190Z,25568.00
2017-10-21T11:48:52.242Z,25632.00
2017-10-21T11:49:52.297Z,25440.00
2017-10-21T11:50:52.418Z,25088.00
2017-10-21T11:51:52.406Z,23968.00
2017-10-21T11:52:52.460Z,23488.00
2017-10-21T11:53:52.510Z,23360.00
2017-10-21T11:54:52.565Z,23072.00
2017-10-21T11:55:52.698Z,23520.00
2017-10-21T11:56:52.670Z,22848.00
2017-10-21T11:57:52.723Z,22464.00
2017-10-21T11:58:52.778Z,22048.00
2017-10-21T11:59:52.830Z,21344.00
2017-10-21T12:00:52.949Z,22016.00
2017-10-21T12:01:52.938Z,22176.00
2017-10-21T12:02:52.989Z,23200.00
2017-10-21T12:03:53.044Z,24576.00
2017-10-21T12:04:53.090Z,24096.00
2017-10-21T12:05:53.210Z,21856.00
2017-10-21T12:06:53.264Z,21216.00
2017-10-21T12:07:53.257Z,20608.00
2017-10-21T12:08:53.307Z,20160.00
2017-10-21T12:09:53.355Z,19808.00
2017-10-21T12:10:53.413Z,19616.00
2017-10-21T12:11:53.531Z,19488.00
2017-10-21T12:12:53.522Z,19360.00
2017-10-21T12:13:53.574Z,19264.00
2017-10-21T12:14:53.623Z,19040.00
2017-10-21T12:15:53.675Z,18720.00
2017-10-21T12:16:53.791Z,18464.00
2017-10-21T12:17:53.784Z,18368.00
2017-10-21T12:18:53.834Z,18464.00
2017-10-21T12:19:53.887Z,18592.00
2017-10-21T12:20:53.941Z,18720.00
2017-10-21T12:21:54.072Z,18944.00
2017-10-21T12:22:54.047Z,19168.00
2017-10-21T12:23:54.100Z,19424.00
2017-10-21T12:24:54.151Z,19552.00
2017-10-21T12:25:54.203Z,19520.00
2017-10-21T12:26:54.329Z,19328.00
2017-10-21T12:27:54.309Z,18848.00
2017-10-21T12:28:54.362Z,18176.00